Time;durP1;ratioP1;P1;durP2;ratioP2;P2;SDS_P1;SDS_P2;PMS_P1;PMS_P2;Temp;Humidity;BMP_temperature;BMP_pressure;BME280_temperature;BME280_humidity;BME280_pressure;Samples;Min_cycle;Max_cycle;Signal;HPM_P1;HPM_P2
2023/07/06 00:01:40;;;;;;;;;;;;;;;23.13;100.00;99438.56;5043254;28;19923;-77
2023/07/06 00:04:06;;;;;;;;;;;;;;;23.01;100.00;99432.31;5046589;28;19917;-78
2023/07/06 00:06:32;;;;;;;;;;;;;;;22.96;100.00;99429.47;5044360;28;19920;-77
2023/07/06 00:08:58;;;;;;;;;;;;;;;22.99;100.00;99434.41;5043089;28;19924;-77
2023/07/06 00:11:26;;;;;;;;;;;;;;;22.99;100.00;99429.00;5048092;28;19968;-77
2023/07/06 00:13:52;;;;;;;;;;;;;;;22.99;100.00;99429.00;5044616;28;19921;-75
2023/07/06 00:16:17;;;;;;;;;;;;;;;22.95;100.00;99422.44;5048692;28;19923;-78
2023/07/06 00:18:42;;;;;;;;;;;;;;;22.92;100.00;99414.81;5046530;28;19921;-77
2023/07/06 00:21:08;;;;;;;;;;;;;;;22.94;100.00;99410.03;5046804;28;19928;-77
2023/07/06 00:23:33;;;;;;;;;;;;;;;22.92;100.00;99417.50;5048630;28;19916;-77
2023/07/06 00:25:58;;;;;;;;;;;;;;;22.93;100.00;99419.16;5045395;28;19923;-77
2023/07/06 00:28:28;;;;;;;;;;;;;;;22.91;100.00;99415.88;5046429;28;19917;-78
2023/07/06 00:30:57;;;;;;;;;;;;;;;22.89;100.00;99412.59;5047206;28;20437;-77
2023/07/06 00:33:26;;;;;;;;;;;;;;;22.90;100.00;99413.41;5041872;28;20015;-76
2023/07/06 00:35:51;;;;;;;;;;;;;;;22.92;100.00;99414.00;5049062;28;19928;-76
2023/07/06 00:38:18;;;;;;;;;;;;;;;22.88;100.00;99412.81;5045984;28;19916;-77
2023/07/06 00:40:56;;;;;;;;;;;;;;;22.86;100.00;99413.84;5045101;28;19978;-77
2023/07/06 00:43:41;;;;;;;;;;;;;;;22.88;100.00;99424.38;5048938;28;19921;-75
2023/07/06 00:46:10;;;;;;;;;;;;;;;22.84;100.00;99423.22;5030953;28;19920;-77
2023/07/06 00:48:38;;;;;;;;;;;;;;;22.88;100.00;99427.09;5043253;28;19917;-77
2023/07/06 00:51:36;;;;;;;;;;;;;;;22.89;100.00;99444.88;5049656;28;19987;-77
2023/07/06 00:54:05;;;;;;;;;;;;;;;22.90;100.00;99451.91;5016251;28;19921;-76
2023/07/06 00:56:34;;;;;;;;;;;;;;;22.90;100.00;99451.91;5042458;28;20146;-77
2023/07/06 00:59:05;;;;;;;;;;;;;;;22.87;100.00;99452.34;5045328;28;19942;-77
2023/07/06 01:01:36;;;;;;;;;;;;;;;22.84;100.00;99448.25;5042209;28;19921;-77
2023/07/06 01:04:03;;;;;;;;;;;;;;;22.71;100.00;99431.38;5041446;28;20008;-75
2023/07/06 01:06:32;;;;;;;;;;;;;;;22.66;100.00;99428.56;5044420;28;19924;-77
2023/07/06 01:08:57;;;;;;;;;;;;;;;22.55;100.00;99426.59;5042953;28;19952;-75
2023/07/06 01:11:23;;;;;;;;;;;;;;;22.44;100.00;99426.28;5045290;28;19916;-76
2023/07/06 01:13:49;;;;;;;;;;;;;;;22.38;100.00;99412.94;5043663;28;19924;-77
2023/07/06 01:16:23;;;;;;;;;;;;;;;22.38;100.00;99411.03;5046604;28;19917;-77
2023/07/06 01:18:58;;;;;;;;;;;;;;;22.34;100.00;99396.41;5042270;28;19920;-76
2023/07/06 01:21:48;;;;;;;;;;;;;;;22.25;100.00;99396.94;5044915;28;19917;-77
2023/07/06 01:24:20;;;;;;;;;;;;;;;22.18;100.00;99398.84;5022772;28;20007;-77
2023/07/06 01:26:48;;;;;;;;;;;;;;;22.14;100.00;99403.84;5043767;28;19923;-77
2023/07/06 01:29:35;;;;;;;;;;;;;;;22.05;100.00;99415.91;5046224;28;20379;-77
2023/07/06 01:32:02;;;;;;;;;;;;;;;22.01;100.00;99425.47;5042174;28;19917;-77
2023/07/06 01:34:46;;;;;;;;;;;;;;;21.95;100.00;99423.66;5040232;28;19921;-78
2023/07/06 01:37:14;;;;;;;;;;;;;;;21.97;100.00;99424.28;5045397;28;20004;-77
2023/07/06 01:39:41;;;;;;;;;;;;;;;21.96;100.00;99417.25;5044341;28;20019;-76
2023/07/06 01:42:09;;;;;;;;;;;;;;;22.01;100.00;99414.72;5045182;28;20019;-77
2023/07/06 01:44:35;;;;;;;;;;;;;;;22.08;100.00;99410.13;5041215;28;19917;-77
2023/07/06 01:47:03;;;;;;;;;;;;;;;22.14;100.00;99413.78;5045672;28;19947;-78
2023/07/06 01:49:29;;;;;;;;;;;;;;;22.13;100.00;99418.34;5046967;28;19916;-77
2023/07/06 01:52:24;;;;;;;;;;;;;;;21.89;100.00;99424.50;5043152;28;19992;-76
2023/07/06 01:55:08;;;;;;;;;;;;;;;21.97;100.00;99430.44;5043526;28;19917;-77
2023/07/06 01:57:38;;;;;;;;;;;;;;;21.91;100.00;99430.47;5045182;28;19924;-77
2023/07/06 02:00:10;;;;;;;;;;;;;;;21.94;100.00;99427.34;5040725;28;20376;-77
2023/07/06 02:02:51;;;;;;;;;;;;;;;21.94;100.00;99435.41;5041822;28;19996;-77
2023/07/06 02:05:17;;;;;;;;;;;;;;;21.78;100.00;99430.56;5061536;28;20309;-77
2023/07/06 02:07:43;;;;;;;;;;;;;;;21.45;100.00;99426.22;5043413;28;19920;-77
2023/07/06 02:10:13;;;;;;;;;;;;;;;21.40;100.00;99411.81;5044298;28;20370;-77
2023/07/06 02:12:38;;;;;;;;;;;;;;;21.20;100.00;99418.16;5055910;28;20027;-76
2023/07/06 02:15:03;;;;;;;;;;;;;;;20.93;100.00;99411.22;5046395;28;20358;-76
2023/07/06 02:17:29;;;;;;;;;;;;;;;21.05;100.00;99419.41;5043065;28;19913;-76
2023/07/06 02:19:54;;;;;;;;;;;;;;;21.09;100.00;99431.34;5047059;28;19916;-75
2023/07/06 02:22:21;;;;;;;;;;;;;;;21.07;100.00;99431.59;5045646;28;19968;-77
2023/07/06 02:24:46;;;;;;;;;;;;;;;21.14;100.00;99437.75;5046364;28;19917;-77
2023/07/06 02:27:11;;;;;;;;;;;;;;;21.19;100.00;99443.31;5041484;28;19927;-76
2023/07/06 02:29:37;;;;;;;;;;;;;;;21.10;100.00;99438.38;5046596;28;19916;-76
2023/07/06 02:32:03;;;;;;;;;;;;;;;21.01;100.00;99440.47;5044961;28;19916;-77
2023/07/06 02:34:28;;;;;;;;;;;;;;;21.05;100.00;99435.50;5039097;28;19960;-75
2023/07/06 02:36:54;;;;;;;;;;;;;;;21.07;100.00;99438.81;5045569;28;20353;-75
2023/07/06 02:39:23;;;;;;;;;;;;;;;21.13;100.00;99437.97;5045560;28;19924;-76
2023/07/06 02:41:51;;;;;;;;;;;;;;;21.16;100.00;99442.91;5043528;28;19916;-76
2023/07/06 02:44:19;;;;;;;;;;;;;;;21.03;100.00;99437.59;5046347;28;20398;-77
2023/07/06 02:46:45;;;;;;;;;;;;;;;21.06;100.00;99447.88;5041776;28;19986;-77
2023/07/06 02:49:11;;;;;;;;;;;;;;;21.07;100.00;99438.81;5041140;28;20357;-76
2023/07/06 02:51:36;;;;;;;;;;;;;;;21.00;100.00;99436.16;5042001;28;19920;-77
2023/07/06 02:54:01;;;;;;;;;;;;;;;21.09;100.00;99429.50;5044530;28;19921;-77
2023/07/06 02:56:27;;;;;;;;;;;;;;;21.18;100.00;99430.13;5042428;28;19939;-77
2023/07/06 02:58:52;;;;;;;;;;;;;;;21.22;100.00;99436.69;5043861;28;20332;-77
2023/07/06 03:01:18;;;;;;;;;;;;;;;21.22;100.00;99436.69;5039943;28;19916;-78
2023/07/06 03:03:44;;;;;;;;;;;;;;;21.20;100.00;99438.78;5044862;28;19920;-77
2023/07/06 03:06:09;;;;;;;;;;;;;;;21.18;100.00;99440.84;5040218;28;19940;-77
2023/07/06 03:08:34;;;;;;;;;;;;;;;21.18;100.00;99440.84;5037961;28;19917;-77
2023/07/06 03:11:00;;;;;;;;;;;;;;;21.20;100.00;99439.63;5046804;28;20280;-77
2023/07/06 03:13:28;;;;;;;;;;;;;;;21.19;100.00;99437.13;5046495;28;20265;-76
2023/07/06 03:15:53;;;;;;;;;;;;;;;21.19;100.00;99431.75;5042703;28;19952;-76
2023/07/06 03:18:19;;;;;;;;;;;;;;;21.22;100.00;99442.88;5045521;28;19970;-78
2023/07/06 03:20:46;;;;;;;;;;;;;;;21.22;100.00;99436.69;5040246;28;19917;-78
2023/07/06 03:23:11;;;;;;;;;;;;;;;21.23;100.00;99441.03;5047002;28;19925;-76
2023/07/06 03:25:36;;;;;;;;;;;;;;;21.24;100.00;99448.03;5040966;28;19967;-77
2023/07/06 03:28:02;;;;;;;;;;;;;;;21.27;100.00;99450.28;5043603;28;19916;-76
2023/07/06 03:30:28;;;;;;;;;;;;;;;21.33;100.00;99452.13;5043083;28;19917;-77
2023/07/06 03:33:00;;;;;;;;;;;;;;;21.26;100.00;99454.03;5043257;28;19917;-75
2023/07/06 03:35:26;;;;;;;;;;;;;;;21.26;100.00;99442.47;5044104;28;19943;-77
2023/07/06 03:37:53;;;;;;;;;;;;;;;21.24;100.00;99446.19;5045761;28;19933;-77
2023/07/06 03:40:18;;;;;;;;;;;;;;;21.13;100.00;99437.97;5041925;28;19956;-78
2023/07/06 03:42:45;;;;;;;;;;;;;;;21.14;100.00;99439.59;5032272;28;20306;-78
2023/07/06 03:45:11;;;;;;;;;;;;;;;21.20;100.00;99438.78;5048496;28;19921;-77
2023/07/06 03:47:37;;;;;;;;;;;;;;;21.24;100.00;99440.00;5045975;28;19926;-77
2023/07/06 03:50:03;;;;;;;;;;;;;;;21.28;100.00;99441.19;5048583;28;19964;-78
2023/07/06 03:52:29;;;;;;;;;;;;;;;21.31;100.00;99451.53;5048360;28;19924;-75
2023/07/06 03:54:54;;;;;;;;;;;;;;;21.31;100.00;99459.56;5042972;28;19978;-75
2023/07/06 03:57:20;;;;;;;;;;;;;;;21.31;100.00;99475.69;5049635;28;20368;-77
2023/07/06 03:59:45;;;;;;;;;;;;;;;21.26;100.00;99470.13;5045208;28;20344;-77
2023/07/06 04:02:12;;;;;;;;;;;;;;;21.12;100.00;99474.69;5047171;28;19950;-77
2023/07/06 04:04:38;;;;;;;;;;;;;;;20.91;100.00;99466.91;5047158;28;20020;-76
2023/07/06 04:07:04;;;;;;;;;;;;;;;20.85;100.00;99468.56;5047143;28;20361;-76
2023/07/06 04:09:29;;;;;;;;;;;;;;;20.91;100.00;99466.13;5043230;28;19935;-76
2023/07/06 04:11:54;;;;;;;;;;;;;;;20.88;100.00;99471.88;5048657;28;19928;-77
2023/07/06 04:14:25;;;;;;;;;;;;;;;20.91;100.00;99482.22;5043763;28;19925;-77
2023/07/06 04:16:51;;;;;;;;;;;;;;;20.95;100.00;99484.25;5049811;28;20043;-76
2023/07/06 04:19:17;;;;;;;;;;;;;;;20.89;100.00;99489.63;5046442;28;20361;-77
2023/07/06 04:21:42;;;;;;;;;;;;;;;20.69;100.00;99498.53;5044732;28;20353;-77
2023/07/06 04:24:07;;;;;;;;;;;;;;;20.71;100.00;99496.47;5045644;28;19936;-77
2023/07/06 04:26:33;;;;;;;;;;;;;;;20.75;100.00;99500.38;5046729;28;20325;-77
2023/07/06 04:28:58;;;;;;;;;;;;;;;20.81;100.00;99496.88;5046966;28;19995;-77
2023/07/06 04:31:24;;;;;;;;;;;;;;;20.88;100.00;99496.03;5048045;28;19955;-77
2023/07/06 04:33:49;;;;;;;;;;;;;;;20.95;100.00;99488.78;5042962;28;19923;-78
2023/07/06 04:36:15;;;;;;;;;;;;;;;20.90;100.00;99502.00;5049188;28;19917;-77
2023/07/06 04:38:41;;;;;;;;;;;;;;;21.02;100.00;99500.31;5043783;28;19940;-77
2023/07/06 04:41:08;;;;;;;;;;;;;;;21.07;100.00;99508.56;5040406;28;19930;-77
2023/07/06 04:43:33;;;;;;;;;;;;;;;21.13;100.00;99507.72;5047153;28;20012;-77
2023/07/06 04:45:58;;;;;;;;;;;;;;;21.17;100.00;99508.97;5047798;28;20003;-76
2023/07/06 04:48:24;;;;;;;;;;;;;;;21.13;100.00;99508.53;5045740;28;19916;-75
2023/07/06 04:50:53;;;;;;;;;;;;;;;21.12;100.00;99511.44;5050429;28;19935;-78
2023/07/06 04:53:19;;;;;;;;;;;;;;;21.09;100.00;99507.28;5043973;28;19971;-78
2023/07/06 04:55:45;;;;;;;;;;;;;;;21.22;100.00;99503.78;5046009;28;20317;-78
2023/07/06 04:58:11;;;;;;;;;;;;;;;21.22;100.00;99495.72;5044938;28;20335;-77
2023/07/06 05:00:39;;;;;;;;;;;;;;;21.17;100.00;99495.53;5046117;28;19925;-77
2023/07/06 05:03:08;;;;;;;;;;;;;;;20.98;100.00;99499.09;5064812;23;19920;-74
2023/07/06 05:05:40;;;;;;;;;;;;;;;21.04;100.00;99492.88;5071383;28;20018;-76
2023/07/06 05:08:07;;;;;;;;;;;;;;;21.04;100.00;99490.19;5071404;28;20053;-74
2023/07/06 05:10:34;;;;;;;;;;;;;;;21.12;100.00;99495.34;5071193;28;19912;-74
2023/07/06 05:13:00;;;;;;;;;;;;;;;21.20;100.00;99503.19;5071073;28;19916;-74
2023/07/06 05:15:25;;;;;;;;;;;;;;;21.03;100.00;99510.03;5070337;28;19916;-75
2023/07/06 05:17:52;;;;;;;;;;;;;;;21.18;100.00;99507.94;5069780;28;19924;-76
2023/07/06 05:20:20;;;;;;;;;;;;;;;21.16;100.00;99512.69;5071053;28;19966;-74
2023/07/06 05:22:48;;;;;;;;;;;;;;;21.23;100.00;99513.47;5070978;28;19927;-75
2023/07/06 05:25:14;;;;;;;;;;;;;;;21.31;100.00;99515.94;5070846;28;19916;-75
2023/07/06 05:27:40;;;;;;;;;;;;;;;21.37;100.00;99514.25;5070892;28;19920;-74
2023/07/06 05:30:06;;;;;;;;;;;;;;;21.46;100.00;99513.78;5071028;28;20011;-74
2023/07/06 05:32:32;;;;;;;;;;;;;;;21.53;100.00;99509.22;5070270;28;19956;-74
2023/07/06 05:34:57;;;;;;;;;;;;;;;21.60;100.00;99515.38;5070891;28;19916;-74
2023/07/06 05:37:23;;;;;;;;;;;;;;;21.62;100.00;99507.91;5069731;28;20007;-74
2023/07/06 05:39:49;;;;;;;;;;;;;;;21.69;100.00;99515.13;5070870;28;19916;-75
2023/07/06 05:42:14;;;;;;;;;;;;;;;21.76;100.00;99521.28;5070733;28;19917;-74
2023/07/06 05:44:40;;;;;;;;;;;;;;;21.83;100.00;99522.06;5070358;28;19928;-74
2023/07/06 05:47:07;;;;;;;;;;;;;;;21.87;100.00;99523.28;5070912;28;19920;-74
2023/07/06 05:49:33;;;;;;;;;;;;;;;21.89;100.00;99530.09;5065070;28;20438;-74
2023/07/06 05:51:58;;;;;;;;;;;;;;;21.87;100.00;99525.97;5070797;28;20375;-75
2023/07/06 05:54:24;;;;;;;;;;;;;;;21.90;100.00;99525.53;5070642;28;19916;-74
2023/07/06 05:56:49;;;;;;;;;;;;;;;21.86;100.00;99540.44;5070648;28;19916;-75
2023/07/06 05:59:15;;;;;;;;;;;;;;;21.87;100.00;99547.44;5070778;28;19959;-74
2023/07/06 06:01:41;;;;;;;;;;;;;;;21.94;100.00;99540.19;5070240;28;19946;-75
2023/07/06 06:04:06;;;;;;;;;;;;;;;21.99;100.00;99535.00;5070293;28;19994;-74
2023/07/06 06:06:46;;;;;;;;;;;;;;;22.07;100.00;99548.19;5070220;28;19916;-75
2023/07/06 06:09:12;;;;;;;;;;;;;;;22.12;100.00;99545.69;5070465;28;19923;-74
2023/07/06 06:11:38;;;;;;;;;;;;;;;22.14;100.00;99540.91;5060190;28;20356;-75
2023/07/06 06:14:03;;;;;;;;;;;;;;;22.23;100.00;99544.97;5048068;28;19927;-76
2023/07/06 06:16:31;;;;;;;;;;;;;;;22.22;100.00;99543.31;5069903;28;19917;-75
2023/07/06 06:18:58;;;;;;;;;;;;;;;22.22;100.00;99551.38;5064601;28;20361;-75
2023/07/06 06:21:23;;;;;;;;;;;;;;;22.18;100.00;99550.19;5069227;28;19990;-75
2023/07/06 06:23:49;;;;;;;;;;;;;;;22.23;100.00;99547.66;5069938;28;19920;-75
2023/07/06 06:26:15;;;;;;;;;;;;;;;22.32;100.00;99562.50;5069832;28;19947;-75
2023/07/06 06:28:41;;;;;;;;;;;;;;;22.35;100.00;99556.66;5068481;28;20348;-75
2023/07/06 06:31:08;;;;;;;;;;;;;;;22.42;100.00;99551.25;5067157;28;19919;-75
2023/07/06 06:33:33;;;;;;;;;;;;;;;22.49;100.00;99551.19;5067993;28;19946;-74
2023/07/06 06:35:59;;;;;;;;;;;;;;;22.52;100.00;99550.72;5069908;28;19917;-74
2023/07/06 06:38:25;;;;;;;;;;;;;;;22.55;100.00;99542.25;5069698;28;20592;-74
2023/07/06 06:40:51;;;;;;;;;;;;;;;22.63;100.00;99547.31;5070144;28;19980;-74
2023/07/06 06:43:16;;;;;;;;;;;;;;;22.69;100.00;99546.44;5069996;28;19972;-75
2023/07/06 06:45:42;;;;;;;;;;;;;;;22.74;100.00;99543.94;5069492;28;20010;-75
2023/07/06 06:48:08;;;;;;;;;;;;;;;22.54;100.00;99545.97;5069761;28;19916;-74
2023/07/06 06:50:33;;;;;;;;;;;;;;;22.64;100.00;99552.50;5068219;28;19916;-75
2023/07/06 06:52:59;;;;;;;;;;;;;;;22.72;100.00;99556.81;5069798;28;20007;-74
2023/07/06 06:55:25;;;;;;;;;;;;;;;22.77;100.00;99552.41;5069154;28;19916;-75
2023/07/06 06:57:50;;;;;;;;;;;;;;;22.80;100.00;99554.63;5069663;28;20102;-74
2023/07/06 07:00:16;;;;;;;;;;;;;;;22.91;100.00;99553.13;5069459;28;20453;-74
2023/07/06 07:02:42;;;;;;;;;;;;;;;22.99;100.00;99546.59;5069250;28;20344;-73
2023/07/06 07:05:09;;;;;;;;;;;;;;;23.07;100.00;99554.38;5069225;28;20017;-75
2023/07/06 07:07:38;;;;;;;;;;;;;;;23.16;100.00;99547.66;5063522;28;20388;-75
2023/07/06 07:10:05;;;;;;;;;;;;;;;23.26;100.00;99551.47;5066302;28;20029;-74
2023/07/06 07:12:30;;;;;;;;;;;;;;;23.31;100.00;99553.50;5069009;28;20269;-74
2023/07/06 07:14:56;;;;;;;;;;;;;;;23.39;100.00;99547.78;5063850;28;19923;-74
2023/07/06 07:17:21;;;;;;;;;;;;;;;23.44;100.00;99552.53;5068810;28;19924;-74
2023/07/06 07:19:47;;;;;;;;;;;;;;;23.53;100.00;99551.19;5068924;28;20013;-74
2023/07/06 07:22:13;;;;;;;;;;;;;;;23.58;100.00;99556.72;5069047;28;19913;-75
2023/07/06 07:24:38;;;;;;;;;;;;;;;23.62;100.00;99552.53;5068597;28;19927;-74
2023/07/06 07:27:04;;;;;;;;;;;;;;;23.62;100.00;99552.53;5068827;28;20380;-75
2023/07/06 07:29:30;;;;;;;;;;;;;;;23.67;100.00;99555.34;5068914;28;19936;-73
2023/07/06 07:31:55;;;;;;;;;;;;;;;23.73;100.00;99553.63;5068956;28;19920;-74
2023/07/06 07:34:21;;;;;;;;;;;;;;;23.75;100.00;99546.94;5068514;28;19939;-76
2023/07/06 07:36:46;;;;;;;;;;;;;;;23.74;100.00;99547.97;5069055;28;19920;-75
2023/07/06 07:39:14;;;;;;;;;;;;;;;23.82;100.00;99547.69;5068756;28;20002;-75
2023/07/06 07:41:42;;;;;;;;;;;;;;;23.86;100.00;99548.84;5068821;28;20334;-74
2023/07/06 07:44:08;;;;;;;;;;;;;;;23.92;100.00;99542.56;5066205;28;20003;-74
2023/07/06 07:46:35;;;;;;;;;;;;;;;23.95;100.00;99542.09;5080729;28;20326;-75
2023/07/06 07:49:01;;;;;;;;;;;;;;;24.03;100.00;99538.28;5065163;28;19923;-75
2023/07/06 07:51:27;;;;;;;;;;;;;;;24.09;100.00;99543.53;5068321;28;20270;-76
2023/07/06 07:53:54;;;;;;;;;;;;;;;24.15;100.00;99535.59;5069055;28;20221;-76
2023/07/06 07:56:20;;;;;;;;;;;;;;;24.21;100.00;99529.31;5068442;28;19920;-75
2023/07/06 07:58:48;;;;;;;;;;;;;;;24.23;100.00;99537.97;5068413;28;19970;-76
2023/07/06 08:01:14;;;;;;;;;;;;;;;24.30;100.00;99538.69;5067957;28;19917;-75
2023/07/06 08:03:40;;;;;;;;;;;;;;;24.36;100.00;99545.88;5064697;28;20056;-76
2023/07/06 08:06:08;;;;;;;;;;;;;;;24.42;100.00;99547.63;5068890;28;19967;-75
2023/07/06 08:08:35;;;;;;;;;;;;;;;24.46;100.00;99554.19;5068290;28;20007;-75
2023/07/06 08:11:03;;;;;;;;;;;;;;;24.53;100.00;99554.91;5068440;28;20423;-74
2023/07/06 08:13:29;;;;;;;;;;;;;;;24.57;100.00;99561.47;5064172;28;19952;-73
2023/07/06 08:15:55;;;;;;;;;;;;;;;24.55;100.00;99560.91;5068092;28;20360;-74
2023/07/06 08:18:22;;;;;;;;;;;;;;;24.57;100.00;99549.88;5068227;28;20340;-74
2023/07/06 08:20:53;;;;;;;;;;;;;;;24.59;100.00;99553.97;5068315;28;19927;-77
2023/07/06 08:23:19;;;;;;;;;;;;;;;24.69;100.00;99559.63;5068458;28;20367;-74
2023/07/06 08:25:45;;;;;;;;;;;;;;;24.75;100.00;99561.38;5068170;28;20137;-75
2023/07/06 08:28:12;;;;;;;;;;;;;;;24.81;100.00;99556.91;5071710;28;19916;-75
2023/07/06 08:30:40;;;;;;;;;;;;;;;24.78;100.00;99560.09;5071938;28;19966;-75
2023/07/06 08:33:07;;;;;;;;;;;;;;;24.77;100.00;99566.53;5072356;28;19927;-75
2023/07/06 08:35:32;;;;;;;;;;;;;;;24.82;100.00;99564.78;5070533;28;20422;-75
2023/07/06 08:37:57;;;;;;;;;;;;;;;24.87;100.00;99562.19;5072196;28;19916;-74
2023/07/06 08:40:26;;;;;;;;;;;;;;;24.88;100.00;99563.88;5070449;28;19928;-75
2023/07/06 08:42:55;;;;;;;;;;;;;;;24.94;100.00;99578.31;5072238;28;19948;-75
2023/07/06 08:45:23;;;;;;;;;;;;;;;24.93;100.00;99575.84;5065887;28;20037;-75
2023/07/06 08:47:50;;;;;;;;;;;;;;;24.94;100.00;99574.78;5070267;28;19916;-76
2023/07/06 08:50:20;;;;;;;;;;;;;;;24.97;100.00;99577.03;5070851;28;20310;-75
2023/07/06 08:52:46;;;;;;;;;;;;;;;24.91;100.00;99577.97;5071597;28;19916;-75
2023/07/06 08:55:13;;;;;;;;;;;;;;;24.98;100.00;99574.06;5071575;28;19917;-75
2023/07/06 08:57:39;;;;;;;;;;;;;;;25.05;100.00;99573.97;5071551;28;19924;-75
2023/07/06 09:00:16;;;;;;;;;;;;;;;25.09;100.00;99575.16;5066350;28;19924;-76
2023/07/06 09:02:41;;;;;;;;;;;;;;;25.14;100.00;99572.56;5066078;28;19916;-75
2023/07/06 09:05:12;;;;;;;;;;;;;;;25.15;100.00;99564.19;5071842;28;19916;-75
2023/07/06 09:07:39;;;;;;;;;;;;;;;25.20;100.00;99577.00;5072295;28;19953;-75
2023/07/06 09:10:25;;;;;;;;;;;;;;;25.27;100.00;99572.31;5070992;28;20290;-75
2023/07/06 09:12:53;;;;;;;;;;;;;;;25.35;100.00;99568.41;5072209;28;19917;-75
2023/07/06 09:15:23;;;;;;;;;;;;;;;25.40;100.00;99572.03;5071929;28;19923;-76
2023/07/06 09:17:52;;;;;;;;;;;;;;;25.42;100.00;99567.22;5071724;28;19916;-76
2023/07/06 09:20:19;;;;;;;;;;;;;;;25.52;100.00;99567.41;5071607;28;19920;-76
2023/07/06 09:22:45;;;;;;;;;;;;;;;25.57;100.00;99562.13;5071509;28;19920;-75
2023/07/06 09:25:21;;;;;;;;;;;;;;;25.62;100.00;99574.94;5072019;28;19916;-76
2023/07/06 09:27:47;;;;;;;;;;;;;;;25.69;100.00;99565.63;5065939;28;19963;-75
2023/07/06 09:30:23;;;;;;;;;;;;;;;25.78;100.00;99567.94;5071473;28;20015;-75
2023/07/06 09:32:51;;;;;;;;;;;;;;;25.80;100.00;99571.25;5070485;28;20015;-75
2023/07/06 09:35:20;;;;;;;;;;;;;;;25.84;100.00;99573.22;5065234;28;19916;-75
2023/07/06 09:37:50;;;;;;;;;;;;;;;25.88;100.00;99568.13;5070947;28;19963;-76
2023/07/06 09:40:15;;;;;;;;;;;;;;;25.89;100.00;99567.09;5071726;28;20399;-74
2023/07/06 09:42:41;;;;;;;;;;;;;;;25.93;100.00;99565.53;5071263;28;19920;-75
2023/07/06 09:45:22;;;;;;;;;;;;;;;25.98;100.00;99562.91;5071116;28;19916;-75
2023/07/06 09:47:52;;;;;;;;;;;;;;;25.98;100.00;99568.31;5071338;28;20322;-75
2023/07/06 09:50:20;;;;;;;;;;;;;;;26.02;100.00;99574.91;5068639;28;19979;-75
2023/07/06 09:52:46;;;;;;;;;;;;;;;26.00;100.00;99566.19;5070081;28;20347;-76
2023/07/06 09:55:30;;;;;;;;;;;;;;;26.05;100.00;99571.69;5065202;28;19916;-75
2023/07/06 09:57:56;;;;;;;;;;;;;;;26.05;100.00;99563.59;5070947;28;20016;-76
2023/07/06 10:00:22;;;;;;;;;;;;;;;26.09;100.00;99562.06;5071063;28;19916;-75
2023/07/06 10:03:08;;;;;;;;;;;;;;;26.16;100.00;99560.00;5070767;28;19923;-73
2023/07/06 10:05:52;;;;;;;;;;;;;;;26.24;100.00;99561.53;5067429;28;20383;-75
2023/07/06 10:08:21;;;;;;;;;;;;;;;26.23;100.00;99560.69;5070762;28;19924;-76
2023/07/06 10:10:48;;;;;;;;;;;;;;;26.27;100.00;99542.13;5071105;28;19923;-75
2023/07/06 10:13:31;;;;;;;;;;;;;;;26.34;100.00;99553.56;5068947;28;19916;-76
2023/07/06 10:16:02;;;;;;;;;;;;;;;26.40;100.00;99544.47;5071157;28;20374;-76
2023/07/06 10:18:30;;;;;;;;;;;;;;;26.44;100.00;99541.06;5066230;28;19916;-75
2023/07/06 10:21:04;;;;;;;;;;;;;;;26.48;100.00;99553.00;5065088;28;19954;-76
2023/07/06 10:23:39;;;;;;;;;;;;;;;26.47;100.00;99555.97;5065113;28;19987;-76
2023/07/06 10:26:17;;;;;;;;;;;;;;;26.40;100.00;99558.81;5069417;28;19916;-75
2023/07/06 10:28:47;;;;;;;;;;;;;;;26.28;100.00;99562.66;5069215;28;20121;-74
2023/07/06 10:31:16;;;;;;;;;;;;;;;26.26;100.00;99568.34;5062132;28;19913;-76
2023/07/06 10:33:48;;;;;;;;;;;;;;;26.24;100.00;99573.16;5069438;28;19916;-76
2023/07/06 10:36:14;;;;;;;;;;;;;;;26.20;100.00;99569.28;5070420;28;19912;-75
2023/07/06 10:38:40;;;;;;;;;;;;;;;26.21;100.00;99573.63;5069964;28;19920;-76
2023/07/06 10:41:12;;;;;;;;;;;;;;;26.11;100.00;99578.84;5070653;28;19970;-76
2023/07/06 10:43:41;;;;;;;;;;;;;;;26.09;100.00;99575.59;5064572;28;19931;-75
2023/07/06 10:46:25;;;;;;;;;;;;;;;26.06;100.00;99576.06;5072338;28;19916;-76
2023/07/06 10:48:54;;;;;;;;;;;;;;;26.04;100.00;99572.75;5070194;28;19962;-76
2023/07/06 10:51:23;;;;;;;;;;;;;;;25.93;100.00;99571.75;5064853;28;19920;-76
2023/07/06 10:53:53;;;;;;;;;;;;;;;25.90;100.00;99576.84;5067900;28;19989;-76
2023/07/06 10:56:22;;;;;;;;;;;;;;;25.79;100.00;99581.25;5070794;28;19916;-76
2023/07/06 10:58:54;;;;;;;;;;;;;;;25.62;100.00;99594.66;5070815;28;19935;-76
2023/07/06 11:01:21;;;;;;;;;;;;;;;25.58;100.00;99601.63;5070103;28;20348;-76
2023/07/06 11:03:46;;;;;;;;;;;;;;;25.45;100.00;99596.44;5070458;28;19921;-76
2023/07/06 11:06:30;;;;;;;;;;;;;;;25.38;100.00;99589.53;5070146;28;19922;-76
2023/07/06 11:09:01;;;;;;;;;;;;;;;25.33;100.00;99581.34;5070476;28;19920;-76
2023/07/06 11:11:27;;;;;;;;;;;;;;;25.31;100.00;99583.44;5069943;28;19917;-75
2023/07/06 11:13:53;;;;;;;;;;;;;;;25.37;100.00;99588.72;5070680;28;19924;-75
2023/07/06 11:16:41;;;;;;;;;;;;;;;25.38;100.00;99579.56;5068400;28;19916;-77
2023/07/06 11:19:13;;;;;;;;;;;;;;;25.38;100.00;99581.44;5067951;28;19917;-75
2023/07/06 11:21:44;;;;;;;;;;;;;;;25.36;100.00;99575.44;5071152;28;20279;-76
2023/07/06 11:24:16;;;;;;;;;;;;;;;25.49;100.00;99562.50;5071305;28;19961;-76
2023/07/06 11:26:42;;;;;;;;;;;;;;;25.61;100.00;99568.72;5069255;28;20404;-76
2023/07/06 11:29:08;;;;;;;;;;;;;;;25.77;100.00;99577.94;5071380;28;20292;-75
2023/07/06 11:31:34;;;;;;;;;;;;;;;25.89;100.00;99583.31;5071138;28;19916;-77
2023/07/06 11:34:06;;;;;;;;;;;;;;;25.86;100.00;99581.88;5071329;28;19916;-76
2023/07/06 11:36:45;;;;;;;;;;;;;;;25.88;100.00;99578.94;5063231;28;20362;-75
2023/07/06 11:39:15;;;;;;;;;;;;;;;25.91;100.00;99560.38;5070031;28;20048;-76
2023/07/06 11:41:53;;;;;;;;;;;;;;;25.96;100.00;99549.66;5070753;28;19920;-76
2023/07/06 11:44:28;;;;;;;;;;;;;;;26.07;100.00;99556.06;5069624;28;19916;-74
2023/07/06 11:47:15;;;;;;;;;;;;;;;26.11;100.00;99551.81;5070135;28;19916;-75
2023/07/06 11:49:43;;;;;;;;;;;;;;;25.92;100.00;99542.28;5068487;28;20402;-76
2023/07/06 11:52:21;;;;;;;;;;;;;;;25.86;100.00;99554.06;5070970;28;19930;-76
2023/07/06 11:55:05;;;;;;;;;;;;;;;25.80;100.00;99565.84;5066346;28;19963;-75
2023/07/06 11:57:43;;;;;;;;;;;;;;;25.83;100.00;99546.41;5071406;28;20291;-76
2023/07/06 12:00:22;;;;;;;;;;;;;;;25.76;100.00;99526.81;5069955;28;20314;-76
2023/07/06 12:03:08;;;;;;;;;;;;;;;25.71;100.00;99540.25;5076128;28;19923;-76
2023/07/06 12:05:33;;;;;;;;;;;;;;;25.67;100.00;99561.53;5072092;28;19974;-76
2023/07/06 12:08:00;;;;;;;;;;;;;;;25.59;100.00;99565.44;5075408;28;19916;-76
2023/07/06 12:10:28;;;;;;;;;;;;;;;25.51;100.00;99568.47;5075618;28;20253;-76
2023/07/06 12:12:55;;;;;;;;;;;;;;;25.51;100.00;99571.16;5076156;28;20601;-75
2023/07/06 12:15:21;;;;;;;;;;;;;;;25.46;100.00;99549.47;5074683;28;19916;-75
2023/07/06 12:17:56;;;;;;;;;;;;;;;25.36;100.00;99565.47;5074106;28;19948;-75
2023/07/06 12:20:29;;;;;;;;;;;;;;;25.33;100.00;99587.53;5072231;28;19923;-75
2023/07/06 12:22:57;;;;;;;;;;;;;;;25.26;100.00;99581.47;5069700;28;19941;-75
2023/07/06 12:25:24;;;;;;;;;;;;;;;25.16;100.00;99581.22;5073346;28;19916;-75
2023/07/06 12:27:54;;;;;;;;;;;;;;;24.97;100.00;99609.44;5073750;28;19978;-76
2023/07/06 12:30:20;;;;;;;;;;;;;;;24.96;100.00;99608.59;5073568;28;19916;-75
2023/07/06 12:32:48;;;;;;;;;;;;;;;24.90;100.00;99598.75;5072096;28;20322;-75
2023/07/06 12:35:14;;;;;;;;;;;;;;;24.82;100.00;99607.16;5073191;28;19916;-75
2023/07/06 12:37:43;;;;;;;;;;;;;;;24.80;100.00;99609.25;5073062;28;20015;-76
2023/07/06 12:40:17;;;;;;;;;;;;;;;24.69;100.00;99586.59;5073116;28;19916;-75
2023/07/06 12:42:43;;;;;;;;;;;;;;;24.64;100.00;99546.00;5073301;28;19927;-75